sensor_id;sensor_type;location;lat;lon;timestamp;temperature;humidity
86361;SHT31;77015;51.686;4.210;2024-03-29T00:01:49;10.76;66.15
86361;SHT31;77015;51.686;4.210;2024-03-29T00:04:15;10.72;66.49
86361;SHT31;77015;51.686;4.210;2024-03-29T00:06:42;10.83;66.18
86361;SHT31;77015;51.686;4.210;2024-03-29T00:09:08;10.82;66.16
86361;SHT31;77015;51.686;4.210;2024-03-29T00:11:34;10.83;66.43
86361;SHT31;77015;51.686;4.210;2024-03-29T00:14:00;10.76;66.84
86361;SHT31;77015;51.686;4.210;2024-03-29T00:16:25;10.77;66.58
86361;SHT31;77015;51.686;4.210;2024-03-29T00:18:51;10.77;66.19
86361;SHT31;77015;51.686;4.210;2024-03-29T00:21:18;10.84;65.83
86361;SHT31;77015;51.686;4.210;2024-03-29T00:23:43;10.79;66.15
86361;SHT31;77015;51.686;4.210;2024-03-29T00:26:10;10.73;66.70
86361;SHT31;77015;51.686;4.210;2024-03-29T00:28:36;10.82;66.38
86361;SHT31;77015;51.686;4.210;2024-03-29T00:31:02;10.92;65.57
86361;SHT31;77015;51.686;4.210;2024-03-29T00:33:27;10.86;65.71
86361;SHT31;77015;51.686;4.210;2024-03-29T00:35:52;10.88;65.62
86361;SHT31;77015;51.686;4.210;2024-03-29T00:38:18;10.83;65.60
86361;SHT31;77015;51.686;4.210;2024-03-29T00:40:43;10.88;65.98
86361;SHT31;77015;51.686;4.210;2024-03-29T00:43:09;10.86;66.15
86361;SHT31;77015;51.686;4.210;2024-03-29T00:45:36;10.82;65.82
86361;SHT31;77015;51.686;4.210;2024-03-29T00:48:02;10.83;65.47
86361;SHT31;77015;51.686;4.210;2024-03-29T00:50:28;10.79;65.94
86361;SHT31;77015;51.686;4.210;2024-03-29T00:52:53;10.80;66.08
86361;SHT31;77015;51.686;4.210;2024-03-29T00:55:19;10.83;65.85
86361;SHT31;77015;51.686;4.210;2024-03-29T00:57:44;10.76;65.65
86361;SHT31;77015;51.686;4.210;2024-03-29T01:00:10;10.76;65.86
86361;SHT31;77015;51.686;4.210;2024-03-29T01:02:36;10.76;65.89
86361;SHT31;77015;51.686;4.210;2024-03-29T01:05:01;10.75;65.78
86361;SHT31;77015;51.686;4.210;2024-03-29T01:07:28;10.75;66.25
86361;SHT31;77015;51.686;4.210;2024-03-29T01:09:53;10.70;65.83
86361;SHT31;77015;51.686;4.210;2024-03-29T01:12:19;10.75;65.79
86361;SHT31;77015;51.686;4.210;2024-03-29T01:14:45;10.77;65.80
86361;SHT31;77015;51.686;4.210;2024-03-29T01:17:11;10.76;65.41
86361;SHT31;77015;51.686;4.210;2024-03-29T01:19:36;10.70;66.09
86361;SHT31;77015;51.686;4.210;2024-03-29T01:22:03;10.70;65.61
86361;SHT31;77015;51.686;4.210;2024-03-29T01:24:29;10.66;66.08
86361;SHT31;77015;51.686;4.210;2024-03-29T01:26:55;10.68;65.43
86361;SHT31;77015;51.686;4.210;2024-03-29T01:29:20;10.69;65.73
86361;SHT31;77015;51.686;4.210;2024-03-29T01:31:46;10.69;65.60
86361;SHT31;77015;51.686;4.210;2024-03-29T01:34:11;10.66;65.32
86361;SHT31;77015;51.686;4.210;2024-03-29T01:36:37;10.63;66.06
86361;SHT31;77015;51.686;4.210;2024-03-29T01:39:03;10.62;65.81
86361;SHT31;77015;51.686;4.210;2024-03-29T01:41:29;10.66;65.68
86361;SHT31;77015;51.686;4.210;2024-03-29T01:43:54;10.62;65.90
86361;SHT31;77015;51.686;4.210;2024-03-29T01:46:23;10.62;66.15
86361;SHT31;77015;51.686;4.210;2024-03-29T01:48:51;10.66;66.20
86361;SHT31;77015;51.686;4.210;2024-03-29T01:51:20;10.69;66.04
86361;SHT31;77015;51.686;4.210;2024-03-29T01:53:47;10.82;65.27
86361;SHT31;77015;51.686;4.210;2024-03-29T01:56:15;10.76;65.48
86361;SHT31;77015;51.686;4.210;2024-03-29T01:58:41;10.72;65.77
86361;SHT31;77015;51.686;4.210;2024-03-29T02:01:08;10.69;66.10
86361;SHT31;77015;51.686;4.210;2024-03-29T02:03:34;10.68;65.98
86361;SHT31;77015;51.686;4.210;2024-03-29T02:06:00;10.63;66.26
86361;SHT31;77015;51.686;4.210;2024-03-29T02:08:28;10.60;66.36
86361;SHT31;77015;51.686;4.210;2024-03-29T02:10:54;10.55;66.68
86361;SHT31;77015;51.686;4.210;2024-03-29T02:13:21;10.56;66.48
86361;SHT31;77015;51.686;4.210;2024-03-29T02:15:46;10.58;66.52
86361;SHT31;77015;51.686;4.210;2024-03-29T02:18:12;10.62;66.20
86361;SHT31;77015;51.686;4.210;2024-03-29T02:20:39;10.52;66.51
86361;SHT31;77015;51.686;4.210;2024-03-29T02:23:14;10.49;66.70
86361;SHT31;77015;51.686;4.210;2024-03-29T02:25:41;10.51;66.72
86361;SHT31;77015;51.686;4.210;2024-03-29T02:28:07;10.45;66.88
86361;SHT31;77015;51.686;4.210;2024-03-29T02:30:32;10.48;66.38
86361;SHT31;77015;51.686;4.210;2024-03-29T02:32:58;10.48;66.32
86361;SHT31;77015;51.686;4.210;2024-03-29T02:35:24;10.51;66.01
86361;SHT31;77015;51.686;4.210;2024-03-29T02:37:50;10.52;65.82
86361;SHT31;77015;51.686;4.210;2024-03-29T02:40:16;10.48;66.18
86361;SHT31;77015;51.686;4.210;2024-03-29T02:42:42;10.48;65.93
86361;SHT31;77015;51.686;4.210;2024-03-29T02:45:07;10.48;66.23
86361;SHT31;77015;51.686;4.210;2024-03-29T02:47:33;10.52;66.46
86361;SHT31;77015;51.686;4.210;2024-03-29T02:49:59;10.51;66.12
86361;SHT31;77015;51.686;4.210;2024-03-29T02:52:24;10.56;66.41
86361;SHT31;77015;51.686;4.210;2024-03-29T02:54:50;10.51;66.58
86361;SHT31;77015;51.686;4.210;2024-03-29T02:57:16;10.51;66.33
86361;SHT31;77015;51.686;4.210;2024-03-29T02:59:42;10.53;66.11
86361;SHT31;77015;51.686;4.210;2024-03-29T03:02:08;10.53;66.68
86361;SHT31;77015;51.686;4.210;2024-03-29T03:04:34;10.52;66.16
86361;SHT31;77015;51.686;4.210;2024-03-29T03:06:59;10.49;66.29
86361;SHT31;77015;51.686;4.210;2024-03-29T03:09:45;10.52;66.66
86361;SHT31;77015;51.686;4.210;2024-03-29T03:12:30;10.46;66.45
86361;SHT31;77015;51.686;4.210;2024-03-29T03:14:57;10.48;66.23
86361;SHT31;77015;51.686;4.210;2024-03-29T03:17:22;10.52;66.01
86361;SHT31;77015;51.686;4.210;2024-03-29T03:19:51;10.55;66.40
86361;SHT31;77015;51.686;4.210;2024-03-29T03:22:18;10.49;66.40
86361;SHT31;77015;51.686;4.210;2024-03-29T03:24:43;10.49;66.77
86361;SHT31;77015;51.686;4.210;2024-03-29T03:27:09;10.48;66.93
86361;SHT31;77015;51.686;4.210;2024-03-29T03:29:34;10.53;67.03
86361;SHT31;77015;51.686;4.210;2024-03-29T03:32:00;10.49;67.07
86361;SHT31;77015;51.686;4.210;2024-03-29T03:34:25;10.59;66.77
86361;SHT31;77015;51.686;4.210;2024-03-29T03:36:51;10.46;66.99
86361;SHT31;77015;51.686;4.210;2024-03-29T03:39:16;10.49;67.15
86361;SHT31;77015;51.686;4.210;2024-03-29T03:41:42;10.42;66.88
86361;SHT31;77015;51.686;4.210;2024-03-29T03:44:07;10.38;67.06
86361;SHT31;77015;51.686;4.210;2024-03-29T03:46:34;10.28;67.63
86361;SHT31;77015;51.686;4.210;2024-03-29T03:48:59;10.31;67.50
86361;SHT31;77015;51.686;4.210;2024-03-29T03:51:25;10.32;67.64
86361;SHT31;77015;51.686;4.210;2024-03-29T03:53:52;10.34;67.10
86361;SHT31;77015;51.686;4.210;2024-03-29T03:56:18;10.32;66.80
86361;SHT31;77015;51.686;4.210;2024-03-29T03:58:44;10.28;67.43
86361;SHT31;77015;51.686;4.210;2024-03-29T04:01:09;10.21;67.76
86361;SHT31;77015;51.686;4.210;2024-03-29T04:03:35;10.24;68.49
86361;SHT31;77015;51.686;4.210;2024-03-29T04:06:04;10.15;68.27
86361;SHT31;77015;51.686;4.210;2024-03-29T04:08:29;10.14;68.89
86361;SHT31;77015;51.686;4.210;2024-03-29T04:10:56;10.11;69.01
86361;SHT31;77015;51.686;4.210;2024-03-29T04:13:22;10.08;69.31
86361;SHT31;77015;51.686;4.210;2024-03-29T04:15:48;10.04;69.82
86361;SHT31;77015;51.686;4.210;2024-03-29T04:18:14;10.04;69.92
86361;SHT31;77015;51.686;4.210;2024-03-29T04:20:39;9.97;70.16
86361;SHT31;77015;51.686;4.210;2024-03-29T04:23:06;9.95;70.46
86361;SHT31;77015;51.686;4.210;2024-03-29T04:25:31;9.97;70.66
86361;SHT31;77015;51.686;4.210;2024-03-29T04:27:58;9.87;71.02
86361;SHT31;77015;51.686;4.210;2024-03-29T04:30:24;9.81;70.98
86361;SHT31;77015;51.686;4.210;2024-03-29T04:32:50;9.76;71.20
86361;SHT31;77015;51.686;4.210;2024-03-29T04:35:15;9.76;71.44
86361;SHT31;77015;51.686;4.210;2024-03-29T04:37:42;9.76;71.44
86361;SHT31;77015;51.686;4.210;2024-03-29T04:40:08;9.73;71.79
86361;SHT31;77015;51.686;4.210;2024-03-29T04:42:33;9.60;72.43
86361;SHT31;77015;51.686;4.210;2024-03-29T04:45:00;9.56;73.41
86361;SHT31;77015;51.686;4.210;2024-03-29T04:47:26;9.38;74.21
86361;SHT31;77015;51.686;4.210;2024-03-29T04:49:53;9.36;75.28
86361;SHT31;77015;51.686;4.210;2024-03-29T04:52:18;9.32;75.32
86361;SHT31;77015;51.686;4.210;2024-03-29T04:54:44;9.23;75.67
86361;SHT31;77015;51.686;4.210;2024-03-29T04:57:09;9.15;76.31
86361;SHT31;77015;51.686;4.210;2024-03-29T04:59:35;9.11;76.94
86361;SHT31;77015;51.686;4.210;2024-03-29T05:02:01;9.12;77.24
86361;SHT31;77015;51.686;4.210;2024-03-29T05:04:27;9.10;77.83
86361;SHT31;77015;51.686;4.210;2024-03-29T05:06:57;9.05;78.49
86361;SHT31;77015;51.686;4.210;2024-03-29T05:09:24;9.01;79.06
86361;SHT31;77015;51.686;4.210;2024-03-29T05:11:51;8.98;79.02
86361;SHT31;77015;51.686;4.210;2024-03-29T05:14:18;8.94;79.18
86361;SHT31;77015;51.686;4.210;2024-03-29T05:16:47;8.82;79.05
86361;SHT31;77015;51.686;4.210;2024-03-29T05:19:14;8.91;79.44
86361;SHT31;77015;51.686;4.210;2024-03-29T05:21:40;8.92;79.31
86361;SHT31;77015;51.686;4.210;2024-03-29T05:24:06;8.85;79.83
86361;SHT31;77015;51.686;4.210;2024-03-29T05:26:32;8.94;79.48
86361;SHT31;77015;51.686;4.210;2024-03-29T05:28:58;9.00;79.64
86361;SHT31;77015;51.686;4.210;2024-03-29T05:31:25;9.01;79.42
86361;SHT31;77015;51.686;4.210;2024-03-29T05:33:51;9.04;79.53
86361;SHT31;77015;51.686;4.210;2024-03-29T05:36:16;9.05;78.86
86361;SHT31;77015;51.686;4.210;2024-03-29T05:38:43;9.07;78.86
86361;SHT31;77015;51.686;4.210;2024-03-29T05:41:09;9.07;78.90
86361;SHT31;77015;51.686;4.210;2024-03-29T05:43:34;9.11;79.18
86361;SHT31;77015;51.686;4.210;2024-03-29T05:46:00;9.15;79.30
86361;SHT31;77015;51.686;4.210;2024-03-29T05:48:27;9.11;79.28
86361;SHT31;77015;51.686;4.210;2024-03-29T05:50:52;9.10;79.69
86361;SHT31;77015;51.686;4.210;2024-03-29T05:53:18;9.11;80.14
86361;SHT31;77015;51.686;4.210;2024-03-29T05:55:43;9.12;80.60
86361;SHT31;77015;51.686;4.210;2024-03-29T05:58:09;9.15;80.55
86361;SHT31;77015;51.686;4.210;2024-03-29T06:00:35;9.15;80.56
86361;SHT31;77015;51.686;4.210;2024-03-29T06:03:02;9.08;80.37
86361;SHT31;77015;51.686;4.210;2024-03-29T06:05:28;9.14;80.47
86361;SHT31;77015;51.686;4.210;2024-03-29T06:07:54;9.12;81.06
86361;SHT31;77015;51.686;4.210;2024-03-29T06:10:19;9.18;80.64
86361;SHT31;77015;51.686;4.210;2024-03-29T06:12:45;9.15;80.40
86361;SHT31;77015;51.686;4.210;2024-03-29T06:15:12;9.15;80.11
86361;SHT31;77015;51.686;4.210;2024-03-29T06:17:56;9.12;80.52
86361;SHT31;77015;51.686;4.210;2024-03-29T06:20:23;9.15;80.61
86361;SHT31;77015;51.686;4.210;2024-03-29T06:22:48;9.12;80.56
86361;SHT31;77015;51.686;4.210;2024-03-29T06:25:14;9.11;80.76
86361;SHT31;77015;51.686;4.210;2024-03-29T06:27:40;9.11;80.23
86361;SHT31;77015;51.686;4.210;2024-03-29T06:30:07;9.18;80.10
86361;SHT31;77015;51.686;4.210;2024-03-29T06:32:33;9.15;80.94
86361;SHT31;77015;51.686;4.210;2024-03-29T06:34:59;9.22;81.03
86361;SHT31;77015;51.686;4.210;2024-03-29T06:37:26;9.16;80.86
86361;SHT31;77015;51.686;4.210;2024-03-29T06:39:52;9.25;80.13
86361;SHT31;77015;51.686;4.210;2024-03-29T06:42:18;9.28;79.53
86361;SHT31;77015;51.686;4.210;2024-03-29T06:44:44;9.25;79.04
86361;SHT31;77015;51.686;4.210;2024-03-29T06:47:09;9.35;78.28
86361;SHT31;77015;51.686;4.210;2024-03-29T06:49:35;9.39;77.58
86361;SHT31;77015;51.686;4.210;2024-03-29T06:52:01;9.42;77.04
86361;SHT31;77015;51.686;4.210;2024-03-29T06:54:27;9.47;77.02
86361;SHT31;77015;51.686;4.210;2024-03-29T06:56:54;9.54;76.86
86361;SHT31;77015;51.686;4.210;2024-03-29T06:59:19;9.56;76.50
86361;SHT31;77015;51.686;4.210;2024-03-29T07:01:45;9.53;76.43
86361;SHT31;77015;51.686;4.210;2024-03-29T07:04:13;9.62;76.21
86361;SHT31;77015;51.686;4.210;2024-03-29T07:06:38;9.64;76.07
86361;SHT31;77015;51.686;4.210;2024-03-29T07:09:04;9.91;75.16
86361;SHT31;77015;51.686;4.210;2024-03-29T07:11:31;10.05;75.08
86361;SHT31;77015;51.686;4.210;2024-03-29T07:13:57;10.24;74.26
86361;SHT31;77015;51.686;4.210;2024-03-29T07:16:22;10.21;74.70
86361;SHT31;77015;51.686;4.210;2024-03-29T07:18:48;10.73;73.67
86361;SHT31;77015;51.686;4.210;2024-03-29T07:21:13;11.30;71.44
86361;SHT31;77015;51.686;4.210;2024-03-29T07:23:38;11.64;69.78
86361;SHT31;77015;51.686;4.210;2024-03-29T07:26:05;11.04;71.36
86361;SHT31;77015;51.686;4.210;2024-03-29T07:28:31;11.06;71.60
86361;SHT31;77015;51.686;4.210;2024-03-29T07:30:57;11.50;70.62
86361;SHT31;77015;51.686;4.210;2024-03-29T07:33:24;11.74;69.77
86361;SHT31;77015;51.686;4.210;2024-03-29T07:35:54;11.79;69.47
86361;SHT31;77015;51.686;4.210;2024-03-29T07:38:20;11.75;69.83
86361;SHT31;77015;51.686;4.210;2024-03-29T07:40:47;12.15;69.11
86361;SHT31;77015;51.686;4.210;2024-03-29T07:43:13;11.64;70.08
86361;SHT31;77015;51.686;4.210;2024-03-29T07:45:44;11.51;70.72
86361;SHT31;77015;51.686;4.210;2024-03-29T07:48:15;10.93;72.20
86361;SHT31;77015;51.686;4.210;2024-03-29T07:50:45;10.72;72.81
86361;SHT31;77015;51.686;4.210;2024-03-29T07:53:11;10.59;73.66
86361;SHT31;77015;51.686;4.210;2024-03-29T07:55:40;10.65;74.01
86361;SHT31;77015;51.686;4.210;2024-03-29T07:58:06;10.52;74.27
86361;SHT31;77015;51.686;4.210;2024-03-29T08:00:34;10.42;74.57
86361;SHT31;77015;51.686;4.210;2024-03-29T08:03:00;10.46;75.16
86361;SHT31;77015;51.686;4.210;2024-03-29T08:05:27;10.41;74.62
86361;SHT31;77015;51.686;4.210;2024-03-29T08:07:53;10.39;74.97
86361;SHT31;77015;51.686;4.210;2024-03-29T08:10:20;10.55;74.46
86361;SHT31;77015;51.686;4.210;2024-03-29T08:12:46;10.73;74.65
86361;SHT31;77015;51.686;4.210;2024-03-29T08:15:11;10.68;74.56
86361;SHT31;77015;51.686;4.210;2024-03-29T08:17:37;10.59;74.46
86361;SHT31;77015;51.686;4.210;2024-03-29T08:20:03;10.55;74.81
86361;SHT31;77015;51.686;4.210;2024-03-29T08:22:29;10.46;75.28
86361;SHT31;77015;51.686;4.210;2024-03-29T08:24:57;10.56;75.25
86361;SHT31;77015;51.686;4.210;2024-03-29T08:27:23;10.69;74.76
86361;SHT31;77015;51.686;4.210;2024-03-29T08:29:48;10.62;74.86
86361;SHT31;77015;51.686;4.210;2024-03-29T08:32:15;10.69;74.77
86361;SHT31;77015;51.686;4.210;2024-03-29T08:34:41;10.70;74.04
86361;SHT31;77015;51.686;4.210;2024-03-29T08:37:06;10.62;74.94
86361;SHT31;77015;51.686;4.210;2024-03-29T08:39:32;10.60;75.02
86361;SHT31;77015;51.686;4.210;2024-03-29T08:41:58;10.63;75.22
86361;SHT31;77015;51.686;4.210;2024-03-29T08:44:25;10.66;74.95
86361;SHT31;77015;51.686;4.210;2024-03-29T08:46:51;10.49;75.53
86361;SHT31;77015;51.686;4.210;2024-03-29T08:49:17;10.63;75.61
86361;SHT31;77015;51.686;4.210;2024-03-29T08:51:43;10.76;75.35
86361;SHT31;77015;51.686;4.210;2024-03-29T08:54:08;10.97;74.37
86361;SHT31;77015;51.686;4.210;2024-03-29T08:56:34;10.96;74.23
86361;SHT31;77015;51.686;4.210;2024-03-29T08:59:03;11.13;74.49
86361;SHT31;77015;51.686;4.210;2024-03-29T09:01:37;11.34;73.57
86361;SHT31;77015;51.686;4.210;2024-03-29T09:04:03;11.44;73.46
86361;SHT31;77015;51.686;4.210;2024-03-29T09:06:32;11.37;73.27
86361;SHT31;77015;51.686;4.210;2024-03-29T09:08:57;11.35;73.35
86361;SHT31;77015;51.686;4.210;2024-03-29T09:11:23;11.13;73.66
86361;SHT31;77015;51.686;4.210;2024-03-29T09:13:48;10.99;74.14
86361;SHT31;77015;51.686;4.210;2024-03-29T09:16:14;11.09;74.07
86361;SHT31;77015;51.686;4.210;2024-03-29T09:18:39;11.09;73.96
86361;SHT31;77015;51.686;4.210;2024-03-29T09:21:05;11.06;74.26
86361;SHT31;77015;51.686;4.210;2024-03-29T09:23:30;11.28;73.98
86361;SHT31;77015;51.686;4.210;2024-03-29T09:25:57;11.34;73.69
86361;SHT31;77015;51.686;4.210;2024-03-29T09:28:23;11.42;73.05
86361;SHT31;77015;51.686;4.210;2024-03-29T09:30:49;11.27;73.43
86361;SHT31;77015;51.686;4.210;2024-03-29T09:33:14;11.41;73.21
86361;SHT31;77015;51.686;4.210;2024-03-29T09:35:40;11.37;72.98
86361;SHT31;77015;51.686;4.210;2024-03-29T09:38:06;11.45;73.06
86361;SHT31;77015;51.686;4.210;2024-03-29T09:40:32;11.45;72.99
86361;SHT31;77015;51.686;4.210;2024-03-29T09:43:01;11.61;72.81
86361;SHT31;77015;51.686;4.210;2024-03-29T09:45:35;11.85;72.50
86361;SHT31;77015;51.686;4.210;2024-03-29T09:48:06;11.99;71.91
86361;SHT31;77015;51.686;4.210;2024-03-29T09:50:33;12.12;71.69
86361;SHT31;77015;51.686;4.210;2024-03-29T09:53:00;12.13;71.11
86361;SHT31;77015;51.686;4.210;2024-03-29T09:55:27;12.10;71.07
86361;SHT31;77015;51.686;4.210;2024-03-29T09:57:53;12.12;70.89
86361;SHT31;77015;51.686;4.210;2024-03-29T10:00:19;12.22;70.68
86361;SHT31;77015;51.686;4.210;2024-03-29T10:02:45;12.41;71.05
86361;SHT31;77015;51.686;4.210;2024-03-29T10:05:14;12.47;70.48
86361;SHT31;77015;51.686;4.210;2024-03-29T10:07:42;12.64;69.78
86361;SHT31;77015;51.686;4.210;2024-03-29T10:10:09;12.77;69.84
86361;SHT31;77015;51.686;4.210;2024-03-29T10:12:36;12.77;69.04
86361;SHT31;77015;51.686;4.210;2024-03-29T10:15:03;12.91;69.23
86361;SHT31;77015;51.686;4.210;2024-03-29T10:17:44;12.71;69.24
86361;SHT31;77015;51.686;4.210;2024-03-29T10:20:10;12.81;68.95
86361;SHT31;77015;51.686;4.210;2024-03-29T10:22:40;12.87;69.38
86361;SHT31;77015;51.686;4.210;2024-03-29T10:25:05;13.01;68.47
86361;SHT31;77015;51.686;4.210;2024-03-29T10:27:31;12.99;68.39
86361;SHT31;77015;51.686;4.210;2024-03-29T10:29:57;13.20;67.58
86361;SHT31;77015;51.686;4.210;2024-03-29T10:32:22;13.34;66.85
86361;SHT31;77015;51.686;4.210;2024-03-29T10:34:48;13.23;67.07
86361;SHT31;77015;51.686;4.210;2024-03-29T10:37:14;13.27;67.21
86361;SHT31;77015;51.686;4.210;2024-03-29T10:39:45;13.22;67.11
86361;SHT31;77015;51.686;4.210;2024-03-29T10:42:10;13.39;66.28
86361;SHT31;77015;51.686;4.210;2024-03-29T10:44:40;13.46;65.91
86361;SHT31;77015;51.686;4.210;2024-03-29T10:47:06;13.34;65.84
86361;SHT31;77015;51.686;4.210;2024-03-29T10:49:33;13.53;66.58
86361;SHT31;77015;51.686;4.210;2024-03-29T10:52:00;13.60;65.44
86361;SHT31;77015;51.686;4.210;2024-03-29T10:54:28;13.42;66.35
86361;SHT31;77015;51.686;4.210;2024-03-29T10:56:59;13.34;66.40
86361;SHT31;77015;51.686;4.210;2024-03-29T10:59:45;13.57;66.01
86361;SHT31;77015;51.686;4.210;2024-03-29T11:02:33;13.78;65.79
86361;SHT31;77015;51.686;4.210;2024-03-29T11:05:02;14.05;65.82
86361;SHT31;77015;51.686;4.210;2024-03-29T11:07:34;14.14;64.10
86361;SHT31;77015;51.686;4.210;2024-03-29T11:10:03;14.11;65.01
86361;SHT31;77015;51.686;4.210;2024-03-29T11:12:35;14.15;65.31
86361;SHT31;77015;51.686;4.210;2024-03-29T11:15:10;14.13;64.83
86361;SHT31;77015;51.686;4.210;2024-03-29T11:17:38;14.17;64.28
86361;SHT31;77015;51.686;4.210;2024-03-29T11:20:05;14.01;64.87
86361;SHT31;77015;51.686;4.210;2024-03-29T11:22:31;14.08;64.76
86361;SHT31;77015;51.686;4.210;2024-03-29T11:24:56;14.14;64.27
86361;SHT31;77015;51.686;4.210;2024-03-29T11:27:22;14.20;63.68
86361;SHT31;77015;51.686;4.210;2024-03-29T11:29:49;13.90;64.45
86361;SHT31;77015;51.686;4.210;2024-03-29T11:32:37;14.03;65.02
86361;SHT31;77015;51.686;4.210;2024-03-29T11:35:04;14.04;64.77
86361;SHT31;77015;51.686;4.210;2024-03-29T11:37:30;14.14;64.07
86361;SHT31;77015;51.686;4.210;2024-03-29T11:39:59;14.10;63.95
86361;SHT31;77015;51.686;4.210;2024-03-29T11:42:44;14.05;63.88
86361;SHT31;77015;51.686;4.210;2024-03-29T11:45:09;14.18;64.41
86361;SHT31;77015;51.686;4.210;2024-03-29T11:47:39;14.59;63.69
86361;SHT31;77015;51.686;4.210;2024-03-29T11:50:07;14.71;62.26
86361;SHT31;77015;51.686;4.210;2024-03-29T11:52:33;14.76;62.26
86361;SHT31;77015;51.686;4.210;2024-03-29T11:54:59;14.73;62.97
86361;SHT31;77015;51.686;4.210;2024-03-29T11:57:24;14.75;62.91
86361;SHT31;77015;51.686;4.210;2024-03-29T11:59:50;14.75;62.13
86361;SHT31;77015;51.686;4.210;2024-03-29T12:02:15;14.90;61.67
86361;SHT31;77015;51.686;4.210;2024-03-29T12:04:42;15.02;61.25
86361;SHT31;77015;51.686;4.210;2024-03-29T12:07:07;14.90;61.69
86361;SHT31;77015;51.686;4.210;2024-03-29T12:09:33;15.08;61.41
86361;SHT31;77015;51.686;4.210;2024-03-29T12:11:58;14.96;60.91
86361;SHT31;77015;51.686;4.210;2024-03-29T12:14:31;15.02;60.20
86361;SHT31;77015;51.686;4.210;2024-03-29T12:17:01;15.17;60.10
86361;SHT31;77015;51.686;4.210;2024-03-29T12:19:27;15.07;61.40
86361;SHT31;77015;51.686;4.210;2024-03-29T12:21:53;15.06;61.25
86361;SHT31;77015;51.686;4.210;2024-03-29T12:24:19;15.14;60.72
86361;SHT31;77015;51.686;4.210;2024-03-29T12:26:45;15.06;61.15
86361;SHT31;77015;51.686;4.210;2024-03-29T12:29:10;15.31;61.68
86361;SHT31;77015;51.686;4.210;2024-03-29T12:31:36;15.48;58.61
86361;SHT31;77015;51.686;4.210;2024-03-29T12:34:03;15.50;59.24
86361;SHT31;77015;51.686;4.210;2024-03-29T12:36:31;15.58;59.48
86361;SHT31;77015;51.686;4.210;2024-03-29T12:38:58;15.62;59.98
86361;SHT31;77015;51.686;4.210;2024-03-29T12:41:29;15.45;60.04
86361;SHT31;77015;51.686;4.210;2024-03-29T12:43:55;15.55;59.19
86361;SHT31;77015;51.686;4.210;2024-03-29T12:46:20;15.48;59.48
86361;SHT31;77015;51.686;4.210;2024-03-29T12:48:46;15.33;59.51
86361;SHT31;77015;51.686;4.210;2024-03-29T12:51:11;15.33;60.36
86361;SHT31;77015;51.686;4.210;2024-03-29T12:53:39;15.40;59.22
86361;SHT31;77015;51.686;4.210;2024-03-29T12:56:05;15.38;59.61
86361;SHT31;77015;51.686;4.210;2024-03-29T12:58:31;15.42;59.78
86361;SHT31;77015;51.686;4.210;2024-03-29T13:00:56;15.42;59.71
86361;SHT31;77015;51.686;4.210;2024-03-29T13:03:22;15.10;59.82
86361;SHT31;77015;51.686;4.210;2024-03-29T13:05:48;15.14;59.71
86361;SHT31;77015;51.686;4.210;2024-03-29T13:08:14;15.17;59.47
86361;SHT31;77015;51.686;4.210;2024-03-29T13:10:43;15.26;59.54
86361;SHT31;77015;51.686;4.210;2024-03-29T13:13:09;15.35;58.32
86361;SHT31;77015;51.686;4.210;2024-03-29T13:15:37;15.28;59.73
86361;SHT31;77015;51.686;4.210;2024-03-29T13:18:03;15.42;59.35
86361;SHT31;77015;51.686;4.210;2024-03-29T13:20:30;15.54;59.55
86361;SHT31;77015;51.686;4.210;2024-03-29T13:22:56;15.81;58.22
86361;SHT31;77015;51.686;4.210;2024-03-29T13:25:23;15.77;58.21
86361;SHT31;77015;51.686;4.210;2024-03-29T13:27:50;15.88;57.57
86361;SHT31;77015;51.686;4.210;2024-03-29T13:30:22;16.03;58.00
86361;SHT31;77015;51.686;4.210;2024-03-29T13:32:48;16.26;57.78
86361;SHT31;77015;51.686;4.210;2024-03-29T13:35:14;16.10;55.59
86361;SHT31;77015;51.686;4.210;2024-03-29T13:37:44;16.12;55.70
86361;SHT31;77015;51.686;4.210;2024-03-29T13:40:17;16.31;54.93
86361;SHT31;77015;51.686;4.210;2024-03-29T13:42:44;16.24;55.36
86361;SHT31;77015;51.686;4.210;2024-03-29T13:45:10;16.17;55.10
86361;SHT31;77015;51.686;4.210;2024-03-29T13:47:37;15.98;55.92
86361;SHT31;77015;51.686;4.210;2024-03-29T13:50:03;15.85;55.53
86361;SHT31;77015;51.686;4.210;2024-03-29T13:52:29;15.83;54.58
86361;SHT31;77015;51.686;4.210;2024-03-29T13:54:55;15.86;55.84
86361;SHT31;77015;51.686;4.210;2024-03-29T13:57:21;15.92;56.11
86361;SHT31;77015;51.686;4.210;2024-03-29T13:59:46;16.06;56.12
86361;SHT31;77015;51.686;4.210;2024-03-29T14:02:18;16.13;55.77
86361;SHT31;77015;51.686;4.210;2024-03-29T14:04:44;16.31;54.88
86361;SHT31;77015;51.686;4.210;2024-03-29T14:07:12;16.49;55.50
86361;SHT31;77015;51.686;4.210;2024-03-29T14:09:42;16.40;55.03
86361;SHT31;77015;51.686;4.210;2024-03-29T14:12:08;16.24;55.26
86361;SHT31;77015;51.686;4.210;2024-03-29T14:14:34;16.26;55.85
86361;SHT31;77015;51.686;4.210;2024-03-29T14:17:00;16.16;54.86
86361;SHT31;77015;51.686;4.210;2024-03-29T14:19:30;16.05;55.44
86361;SHT31;77015;51.686;4.210;2024-03-29T14:21:57;15.96;55.38
86361;SHT31;77015;51.686;4.210;2024-03-29T14:24:22;16.13;55.38
86361;SHT31;77015;51.686;4.210;2024-03-29T14:26:51;16.43;54.56
86361;SHT31;77015;51.686;4.210;2024-03-29T14:29:17;16.63;54.18
86361;SHT31;77015;51.686;4.210;2024-03-29T14:31:49;16.81;53.84
86361;SHT31;77015;51.686;4.210;2024-03-29T14:34:16;16.77;53.72
86361;SHT31;77015;51.686;4.210;2024-03-29T14:36:42;16.71;52.24
86361;SHT31;77015;51.686;4.210;2024-03-29T14:39:07;16.63;51.88
86361;SHT31;77015;51.686;4.210;2024-03-29T14:41:33;16.57;52.64
86361;SHT31;77015;51.686;4.210;2024-03-29T14:44:02;16.41;53.38
86361;SHT31;77015;51.686;4.210;2024-03-29T14:46:28;16.23;54.44
86361;SHT31;77015;51.686;4.210;2024-03-29T14:48:53;16.29;53.58
86361;SHT31;77015;51.686;4.210;2024-03-29T14:51:19;16.19;54.31
86361;SHT31;77015;51.686;4.210;2024-03-29T14:53:45;16.34;54.07
86361;SHT31;77015;51.686;4.210;2024-03-29T14:56:16;16.33;53.46
86361;SHT31;77015;51.686;4.210;2024-03-29T14:58:42;16.33;53.62
86361;SHT31;77015;51.686;4.210;2024-03-29T15:01:07;16.41;54.23
86361;SHT31;77015;51.686;4.210;2024-03-29T15:03:33;16.51;53.71
86361;SHT31;77015;51.686;4.210;2024-03-29T15:05:58;16.29;53.49
86361;SHT31;77015;51.686;4.210;2024-03-29T15:08:23;16.13;54.85
86361;SHT31;77015;51.686;4.210;2024-03-29T15:10:59;16.09;54.77
86361;SHT31;77015;51.686;4.210;2024-03-29T15:13:25;16.09;55.50
86361;SHT31;77015;51.686;4.210;2024-03-29T15:16:04;15.98;55.40
86361;SHT31;77015;51.686;4.210;2024-03-29T15:18:29;15.98;55.80
86361;SHT31;77015;51.686;4.210;2024-03-29T15:21:02;15.93;55.85
86361;SHT31;77015;51.686;4.210;2024-03-29T15:23:29;15.91;55.89
86361;SHT31;77015;51.686;4.210;2024-03-29T15:25:57;15.88;56.20
86361;SHT31;77015;51.686;4.210;2024-03-29T15:28:25;15.77;56.95
86361;SHT31;77015;51.686;4.210;2024-03-29T15:31:13;15.65;56.90